sensor_id;sensor_type;location;lat;lon;timestamp;P1;durP1;ratioP1;P2;durP2;ratioP2
20042;SDS011;10182;52.896;6.496;2023-05-10T00:01:48;16.73;;;15.13;;
20042;SDS011;10182;52.896;6.496;2023-05-10T00:06:49;16.83;;;15.17;;
20042;SDS011;10182;52.896;6.496;2023-05-10T00:11:51;16.93;;;15.17;;
20042;SDS011;10182;52.896;6.496;2023-05-10T00:16:54;16.13;;;14.43;;
20042;SDS011;10182;52.896;6.496;2023-05-10T00:21:56;15.73;;;14.10;;
20042;SDS011;10182;52.896;6.496;2023-05-10T00:26:57;14.90;;;13.40;;
20042;SDS011;10182;52.896;6.496;2023-05-10T00:32:02;16.20;;;13.57;;
20042;SDS011;10182;52.896;6.496;2023-05-10T00:37:03;17.37;;;13.83;;
20042;SDS011;10182;52.896;6.496;2023-05-10T00:42:05;14.87;;;13.37;;
20042;SDS011;10182;52.896;6.496;2023-05-10T00:47:08;16.93;;;14.57;;
20042;SDS011;10182;52.896;6.496;2023-05-10T00:52:11;16.00;;;14.30;;
20042;SDS011;10182;52.896;6.496;2023-05-10T00:57:13;17.33;;;14.23;;
20042;SDS011;10182;52.896;6.496;2023-05-10T01:02:16;17.73;;;15.07;;
20042;SDS011;10182;52.896;6.496;2023-05-10T01:07:18;15.70;;;13.97;;
20042;SDS011;10182;52.896;6.496;2023-05-10T01:12:19;13.63;;;12.23;;
20042;SDS011;10182;52.896;6.496;2023-05-10T01:17:22;16.43;;;14.17;;
20042;SDS011;10182;52.896;6.496;2023-05-10T01:22:30;17.80;;;14.07;;
20042;SDS011;10182;52.896;6.496;2023-05-10T01:33:38;19.87;;;14.67;;
20042;SDS011;10182;52.896;6.496;2023-05-10T01:38:42;17.83;;;13.97;;
20042;SDS011;10182;52.896;6.496;2023-05-10T01:43:52;16.83;;;12.53;;
20042;SDS011;10182;52.896;6.496;2023-05-10T01:49:00;16.60;;;12.80;;
20042;SDS011;10182;52.896;6.496;2023-05-10T01:54:03;16.90;;;13.17;;
20042;SDS011;10182;52.896;6.496;2023-05-10T01:59:08;14.43;;;11.97;;
20042;SDS011;10182;52.896;6.496;2023-05-10T02:04:15;16.53;;;13.03;;
20042;SDS011;10182;52.896;6.496;2023-05-10T02:09:18;16.20;;;13.33;;
20042;SDS011;10182;52.896;6.496;2023-05-10T02:14:21;17.80;;;13.83;;
20042;SDS011;10182;52.896;6.496;2023-05-10T02:19:26;14.53;;;13.03;;
20042;SDS011;10182;52.896;6.496;2023-05-10T02:24:29;14.07;;;12.20;;
20042;SDS011;10182;52.896;6.496;2023-05-10T02:29:33;12.93;;;11.33;;
20042;SDS011;10182;52.896;6.496;2023-05-10T02:34:36;13.27;;;11.87;;
20042;SDS011;10182;52.896;6.496;2023-05-10T02:39:39;14.13;;;12.30;;
20042;SDS011;10182;52.896;6.496;2023-05-10T02:44:45;15.20;;;13.37;;
20042;SDS011;10182;52.896;6.496;2023-05-10T02:49:50;14.67;;;13.07;;
20042;SDS011;10182;52.896;6.496;2023-05-10T02:54:52;13.87;;;12.47;;
20042;SDS011;10182;52.896;6.496;2023-05-10T02:59:57;14.27;;;12.73;;
20042;SDS011;10182;52.896;6.496;2023-05-10T03:05:01;13.23;;;11.93;;
20042;SDS011;10182;52.896;6.496;2023-05-10T03:10:07;12.53;;;11.20;;
20042;SDS011;10182;52.896;6.496;2023-05-10T03:15:11;11.77;;;10.57;;
20042;SDS011;10182;52.896;6.496;2023-05-10T03:20:20;11.30;;;10.13;;
20042;SDS011;10182;52.896;6.496;2023-05-10T03:25:24;11.87;;;10.67;;
20042;SDS011;10182;52.896;6.496;2023-05-10T03:30:26;13.30;;;10.47;;
20042;SDS011;10182;52.896;6.496;2023-05-10T03:35:30;8.83;;;7.90;;
20042;SDS011;10182;52.896;6.496;2023-05-10T03:40:32;10.27;;;8.57;;
20042;SDS011;10182;52.896;6.496;2023-05-10T03:45:34;9.70;;;8.70;;
20042;SDS011;10182;52.896;6.496;2023-05-10T03:50:37;9.20;;;8.30;;
20042;SDS011;10182;52.896;6.496;2023-05-10T03:55:39;13.23;;;11.60;;
20042;SDS011;10182;52.896;6.496;2023-05-10T04:00:40;14.40;;;12.90;;
20042;SDS011;10182;52.896;6.496;2023-05-10T04:05:46;15.17;;;13.37;;
20042;SDS011;10182;52.896;6.496;2023-05-10T04:10:48;15.60;;;13.20;;
20042;SDS011;10182;52.896;6.496;2023-05-10T04:15:49;13.23;;;11.93;;
20042;SDS011;10182;52.896;6.496;2023-05-10T04:20:52;14.03;;;12.20;;
20042;SDS011;10182;52.896;6.496;2023-05-10T04:25:58;12.43;;;11.17;;
20042;SDS011;10182;52.896;6.496;2023-05-10T04:31:01;12.40;;;10.57;;
20042;SDS011;10182;52.896;6.496;2023-05-10T04:36:05;12.30;;;10.50;;
20042;SDS011;10182;52.896;6.496;2023-05-10T04:41:08;13.53;;;12.07;;
20042;SDS011;10182;52.896;6.496;2023-05-10T04:46:10;13.80;;;12.50;;
20042;SDS011;10182;52.896;6.496;2023-05-10T04:51:13;14.60;;;11.37;;
20042;SDS011;10182;52.896;6.496;2023-05-10T04:56:15;13.27;;;11.27;;
20042;SDS011;10182;52.896;6.496;2023-05-10T05:01:17;13.87;;;12.53;;
20042;SDS011;10182;52.896;6.496;2023-05-10T05:06:20;12.87;;;11.63;;
20042;SDS011;10182;52.896;6.496;2023-05-10T05:11:21;12.67;;;11.40;;
20042;SDS011;10182;52.896;6.496;2023-05-10T05:16:23;13.43;;;12.03;;
20042;SDS011;10182;52.896;6.496;2023-05-10T05:21:28;14.23;;;10.83;;
20042;SDS011;10182;52.896;6.496;2023-05-10T05:26:29;11.47;;;10.27;;
20042;SDS011;10182;52.896;6.496;2023-05-10T05:31:31;14.30;;;11.60;;
20042;SDS011;10182;52.896;6.496;2023-05-10T05:36:36;13.00;;;10.83;;
20042;SDS011;10182;52.896;6.496;2023-05-10T05:41:39;11.77;;;10.57;;
20042;SDS011;10182;52.896;6.496;2023-05-10T05:46:41;13.43;;;12.03;;
20042;SDS011;10182;52.896;6.496;2023-05-10T05:51:44;15.33;;;12.93;;
20042;SDS011;10182;52.896;6.496;2023-05-10T05:56:45;15.20;;;11.90;;
20042;SDS011;10182;52.896;6.496;2023-05-10T06:01:47;14.87;;;11.20;;
20042;SDS011;10182;52.896;6.496;2023-05-10T06:06:50;12.77;;;10.73;;
20042;SDS011;10182;52.896;6.496;2023-05-10T06:11:52;12.43;;;9.63;;
20042;SDS011;10182;52.896;6.496;2023-05-10T06:16:54;9.87;;;8.80;;
20042;SDS011;10182;52.896;6.496;2023-05-10T06:21:57;10.37;;;9.37;;
20042;SDS011;10182;52.896;6.496;2023-05-10T06:26:58;10.33;;;9.23;;
20042;SDS011;10182;52.896;6.496;2023-05-10T06:32:00;9.73;;;8.73;;
20042;SDS011;10182;52.896;6.496;2023-05-10T06:37:03;8.70;;;7.80;;
20042;SDS011;10182;52.896;6.496;2023-05-10T06:42:05;8.60;;;7.70;;
20042;SDS011;10182;52.896;6.496;2023-05-10T06:47:07;7.70;;;6.73;;
20042;SDS011;10182;52.896;6.496;2023-05-10T06:52:10;7.33;;;6.57;;
20042;SDS011;10182;52.896;6.496;2023-05-10T06:57:11;6.40;;;5.70;;
20042;SDS011;10182;52.896;6.496;2023-05-10T07:02:13;5.73;;;5.13;;
20042;SDS011;10182;52.896;6.496;2023-05-10T07:07:17;5.47;;;4.97;;
20042;SDS011;10182;52.896;6.496;2023-05-10T07:12:19;6.07;;;5.40;;
20042;SDS011;10182;52.896;6.496;2023-05-10T07:17:21;5.57;;;5.07;;
20042;SDS011;10182;52.896;6.496;2023-05-10T07:22:24;5.67;;;5.17;;
20042;SDS011;10182;52.896;6.496;2023-05-10T07:27:26;5.57;;;5.07;;
20042;SDS011;10182;52.896;6.496;2023-05-10T07:32:28;5.90;;;5.40;;
20042;SDS011;10182;52.896;6.496;2023-05-10T07:37:31;6.07;;;4.80;;
20042;SDS011;10182;52.896;6.496;2023-05-10T07:42:32;5.53;;;5.03;;
20042;SDS011;10182;52.896;6.496;2023-05-10T07:47:34;6.53;;;5.10;;
20042;SDS011;10182;52.896;6.496;2023-05-10T07:52:37;5.33;;;4.83;;
20042;SDS011;10182;52.896;6.496;2023-05-10T07:57:38;5.23;;;4.73;;
20042;SDS011;10182;52.896;6.496;2023-05-10T08:02:40;6.57;;;5.33;;
20042;SDS011;10182;52.896;6.496;2023-05-10T08:07:43;5.80;;;5.30;;
20042;SDS011;10182;52.896;6.496;2023-05-10T08:12:45;6.03;;;5.43;;
20042;SDS011;10182;52.896;6.496;2023-05-10T08:17:47;6.00;;;5.50;;
20042;SDS011;10182;52.896;6.496;2023-05-10T08:22:50;7.33;;;6.10;;
20042;SDS011;10182;52.896;6.496;2023-05-10T08:27:51;7.07;;;5.90;;
20042;SDS011;10182;52.896;6.496;2023-05-10T08:32:53;5.40;;;4.90;;
20042;SDS011;10182;52.896;6.496;2023-05-10T08:37:56;6.03;;;5.50;;
20042;SDS011;10182;52.896;6.496;2023-05-10T08:42:59;4.87;;;4.40;;
20042;SDS011;10182;52.896;6.496;2023-05-10T08:48:06;4.70;;;4.07;;
20042;SDS011;10182;52.896;6.496;2023-05-10T08:53:10;4.83;;;4.43;;
20042;SDS011;10182;52.896;6.496;2023-05-10T08:58:13;7.30;;;5.03;;
20042;SDS011;10182;52.896;6.496;2023-05-10T09:03:15;5.13;;;4.63;;
20042;SDS011;10182;52.896;6.496;2023-05-10T09:08:19;6.03;;;5.47;;
20042;SDS011;10182;52.896;6.496;2023-05-10T09:13:22;5.60;;;5.10;;
20042;SDS011;10182;52.896;6.496;2023-05-10T09:18:24;6.20;;;5.20;;
20042;SDS011;10182;52.896;6.496;2023-05-10T09:23:27;5.77;;;5.27;;
20042;SDS011;10182;52.896;6.496;2023-05-10T09:28:32;6.07;;;5.47;;
20042;SDS011;10182;52.896;6.496;2023-05-10T09:33:43;7.93;;;5.80;;
20042;SDS011;10182;52.896;6.496;2023-05-10T09:38:47;5.87;;;5.20;;
20042;SDS011;10182;52.896;6.496;2023-05-10T09:43:49;6.10;;;5.60;;
20042;SDS011;10182;52.896;6.496;2023-05-10T09:48:51;6.20;;;5.53;;
20042;SDS011;10182;52.896;6.496;2023-05-10T09:54:08;8.03;;;5.37;;
20042;SDS011;10182;52.896;6.496;2023-05-10T09:59:11;6.80;;;6.10;;
20042;SDS011;10182;52.896;6.496;2023-05-10T10:04:13;5.40;;;4.90;;
20042;SDS011;10182;52.896;6.496;2023-05-10T10:09:16;6.07;;;5.17;;
20042;SDS011;10182;52.896;6.496;2023-05-10T10:14:18;5.30;;;4.50;;
20042;SDS011;10182;52.896;6.496;2023-05-10T10:19:21;4.97;;;4.47;;
20042;SDS011;10182;52.896;6.496;2023-05-10T10:24:24;5.70;;;5.10;;
20042;SDS011;10182;52.896;6.496;2023-05-10T10:29:32;7.10;;;4.77;;
20042;SDS011;10182;52.896;6.496;2023-05-10T10:34:40;5.77;;;4.43;;
20042;SDS011;10182;52.896;6.496;2023-05-10T10:39:43;4.00;;;3.60;;
20042;SDS011;10182;52.896;6.496;2023-05-10T10:44:45;5.13;;;4.67;;
20042;SDS011;10182;52.896;6.496;2023-05-10T10:49:48;5.10;;;4.60;;
20042;SDS011;10182;52.896;6.496;2023-05-10T10:54:53;6.97;;;5.37;;
20042;SDS011;10182;52.896;6.496;2023-05-10T11:16:17;5.03;;;4.60;;
20042;SDS011;10182;52.896;6.496;2023-05-10T11:21:20;9.57;;;7.57;;
20042;SDS011;10182;52.896;6.496;2023-05-10T11:26:24;8.97;;;8.10;;
20042;SDS011;10182;52.896;6.496;2023-05-10T11:31:26;10.47;;;8.70;;
20042;SDS011;10182;52.896;6.496;2023-05-10T11:36:28;7.57;;;6.70;;
20042;SDS011;10182;52.896;6.496;2023-05-10T11:41:32;8.20;;;6.97;;
20042;SDS011;10182;52.896;6.496;2023-05-10T11:46:34;9.53;;;7.27;;
20042;SDS011;10182;52.896;6.496;2023-05-10T11:51:37;8.33;;;7.27;;
20042;SDS011;10182;52.896;6.496;2023-05-10T11:56:40;8.70;;;7.80;;
20042;SDS011;10182;52.896;6.496;2023-05-10T12:01:42;9.43;;;7.87;;
20042;SDS011;10182;52.896;6.496;2023-05-10T12:06:44;7.87;;;7.07;;
20042;SDS011;10182;52.896;6.496;2023-05-10T12:11:48;8.43;;;7.07;;
20042;SDS011;10182;52.896;6.496;2023-05-10T12:16:49;7.37;;;6.33;;
20042;SDS011;10182;52.896;6.496;2023-05-10T12:21:52;9.50;;;7.20;;
20042;SDS011;10182;52.896;6.496;2023-05-10T12:26:55;6.77;;;6.07;;
20042;SDS011;10182;52.896;6.496;2023-05-10T12:31:57;10.30;;;7.53;;
20042;SDS011;10182;52.896;6.496;2023-05-10T12:37:00;7.50;;;6.40;;
20042;SDS011;10182;52.896;6.496;2023-05-10T12:42:04;8.10;;;7.30;;
20042;SDS011;10182;52.896;6.496;2023-05-10T12:47:06;8.50;;;7.33;;
20042;SDS011;10182;52.896;6.496;2023-05-10T12:52:08;11.90;;;9.50;;
20042;SDS011;10182;52.896;6.496;2023-05-10T12:57:11;12.77;;;9.17;;
20042;SDS011;10182;52.896;6.496;2023-05-10T13:02:13;13.07;;;9.67;;
20042;SDS011;10182;52.896;6.496;2023-05-10T13:07:17;11.80;;;9.33;;
20042;SDS011;10182;52.896;6.496;2023-05-10T13:12:20;12.13;;;10.07;;
20042;SDS011;10182;52.896;6.496;2023-05-10T13:17:22;13.03;;;10.17;;
20042;SDS011;10182;52.896;6.496;2023-05-10T13:22:24;13.07;;;10.10;;
20042;SDS011;10182;52.896;6.496;2023-05-10T13:27:27;13.90;;;11.13;;
20042;SDS011;10182;52.896;6.496;2023-05-10T13:32:29;13.93;;;11.10;;
20042;SDS011;10182;52.896;6.496;2023-05-10T13:37:31;13.23;;;10.53;;
20042;SDS011;10182;52.896;6.496;2023-05-10T13:42:36;20.17;;;11.37;;
20042;SDS011;10182;52.896;6.496;2023-05-10T13:47:38;15.93;;;11.10;;
20042;SDS011;10182;52.896;6.496;2023-05-10T13:52:40;15.50;;;11.30;;
20042;SDS011;10182;52.896;6.496;2023-05-10T13:57:43;14.93;;;12.30;;
20042;SDS011;10182;52.896;6.496;2023-05-10T14:02:44;15.27;;;11.10;;
20042;SDS011;10182;52.896;6.496;2023-05-10T14:07:46;13.67;;;11.47;;
20042;SDS011;10182;52.896;6.496;2023-05-10T14:12:49;14.93;;;10.50;;
20042;SDS011;10182;52.896;6.496;2023-05-10T14:17:51;14.43;;;11.33;;
20042;SDS011;10182;52.896;6.496;2023-05-10T14:22:53;14.17;;;10.97;;
20042;SDS011;10182;52.896;6.496;2023-05-10T14:27:56;14.40;;;11.10;;
20042;SDS011;10182;52.896;6.496;2023-05-10T14:32:58;14.23;;;10.67;;
20042;SDS011;10182;52.896;6.496;2023-05-10T14:38:01;14.07;;;10.70;;
20042;SDS011;10182;52.896;6.496;2023-05-10T14:43:04;14.17;;;10.50;;
20042;SDS011;10182;52.896;6.496;2023-05-10T14:48:06;15.63;;;10.30;;
20042;SDS011;10182;52.896;6.496;2023-05-10T14:53:11;13.77;;;10.43;;
20042;SDS011;10182;52.896;6.496;2023-05-10T14:58:14;11.50;;;10.13;;
20042;SDS011;10182;52.896;6.496;2023-05-10T15:03:16;12.93;;;10.73;;
20042;SDS011;10182;52.896;6.496;2023-05-10T15:08:18;12.27;;;10.23;;
20042;SDS011;10182;52.896;6.496;2023-05-10T15:13:21;11.73;;;9.57;;
20042;SDS011;10182;52.896;6.496;2023-05-10T15:18:22;13.00;;;9.70;;
20042;SDS011;10182;52.896;6.496;2023-05-10T15:23:24;13.20;;;10.53;;
20042;SDS011;10182;52.896;6.496;2023-05-10T15:28:28;12.07;;;10.10;;
20042;SDS011;10182;52.896;6.496;2023-05-10T15:33:29;11.80;;;10.40;;
20042;SDS011;10182;52.896;6.496;2023-05-10T15:43:34;13.17;;;9.20;;
20042;SDS011;10182;52.896;6.496;2023-05-10T15:48:36;9.10;;;8.03;;
20042;SDS011;10182;52.896;6.496;2023-05-10T15:53:39;9.63;;;8.27;;
20042;SDS011;10182;52.896;6.496;2023-05-10T15:58:42;7.77;;;6.97;;
20042;SDS011;10182;52.896;6.496;2023-05-10T16:03:44;10.10;;;8.10;;
20042;SDS011;10182;52.896;6.496;2023-05-10T16:08:45;7.80;;;5.80;;
20042;SDS011;10182;52.896;6.496;2023-05-10T16:13:49;7.67;;;5.40;;
20042;SDS011;10182;52.896;6.496;2023-05-10T16:18:50;6.63;;;5.73;;
20042;SDS011;10182;52.896;6.496;2023-05-10T16:23:52;6.13;;;5.53;;
20042;SDS011;10182;52.896;6.496;2023-05-10T16:28:55;8.37;;;6.50;;
20042;SDS011;10182;52.896;6.496;2023-05-10T16:33:57;7.37;;;6.40;;
20042;SDS011;10182;52.896;6.496;2023-05-10T16:38:59;6.57;;;5.97;;
20042;SDS011;10182;52.896;6.496;2023-05-10T16:44:02;9.23;;;7.80;;
20042;SDS011;10182;52.896;6.496;2023-05-10T16:49:05;8.53;;;7.67;;
20042;SDS011;10182;52.896;6.496;2023-05-10T16:54:07;10.80;;;9.70;;
20042;SDS011;10182;52.896;6.496;2023-05-10T16:59:10;12.70;;;10.20;;
20042;SDS011;10182;52.896;6.496;2023-05-10T17:04:12;12.60;;;9.47;;
20042;SDS011;10182;52.896;6.496;2023-05-10T17:09:14;11.63;;;9.63;;
20042;SDS011;10182;52.896;6.496;2023-05-10T17:14:17;11.23;;;9.93;;
20042;SDS011;10182;52.896;6.496;2023-05-10T17:19:18;10.60;;;8.93;;
20042;SDS011;10182;52.896;6.496;2023-05-10T17:24:20;11.03;;;9.03;;
20042;SDS011;10182;52.896;6.496;2023-05-10T17:29:23;9.17;;;8.13;;
20042;SDS011;10182;52.896;6.496;2023-05-10T17:34:25;8.80;;;7.70;;
20042;SDS011;10182;52.896;6.496;2023-05-10T17:39:27;8.87;;;7.33;;
20042;SDS011;10182;52.896;6.496;2023-05-10T17:44:30;9.00;;;7.73;;
20042;SDS011;10182;52.896;6.496;2023-05-10T17:49:31;8.40;;;7.60;;
20042;SDS011;10182;52.896;6.496;2023-05-10T17:54:33;8.80;;;7.90;;
20042;SDS011;10182;52.896;6.496;2023-05-10T17:59:36;8.80;;;7.90;;
20042;SDS011;10182;52.896;6.496;2023-05-10T18:04:38;9.93;;;8.67;;
20042;SDS011;10182;52.896;6.496;2023-05-10T18:09:39;9.43;;;8.43;;
20042;SDS011;10182;52.896;6.496;2023-05-10T18:14:42;8.37;;;7.20;;
20042;SDS011;10182;52.896;6.496;2023-05-10T18:19:44;6.93;;;6.13;;
20042;SDS011;10182;52.896;6.496;2023-05-10T18:24:46;6.67;;;6.07;;
20042;SDS011;10182;52.896;6.496;2023-05-10T18:29:49;10.37;;;7.03;;
20042;SDS011;10182;52.896;6.496;2023-05-10T18:34:51;6.63;;;5.80;;
20042;SDS011;10182;52.896;6.496;2023-05-10T18:39:52;6.80;;;6.20;;
20042;SDS011;10182;52.896;6.496;2023-05-10T18:44:55;7.80;;;7.00;;
20042;SDS011;10182;52.896;6.496;2023-05-10T18:49:57;7.60;;;6.90;;
20042;SDS011;10182;52.896;6.496;2023-05-10T18:54:59;7.60;;;6.77;;
20042;SDS011;10182;52.896;6.496;2023-05-10T19:00:02;10.53;;;7.40;;
20042;SDS011;10182;52.896;6.496;2023-05-10T19:05:04;7.70;;;6.57;;
20042;SDS011;10182;52.896;6.496;2023-05-10T19:10:07;6.90;;;6.20;;
20042;SDS011;10182;52.896;6.496;2023-05-10T19:15:10;6.53;;;5.93;;
20042;SDS011;10182;52.896;6.496;2023-05-10T19:20:12;6.67;;;6.00;;
20042;SDS011;10182;52.896;6.496;2023-05-10T19:25:14;7.63;;;6.07;;
20042;SDS011;10182;52.896;6.496;2023-05-10T19:30:18;8.77;;;6.30;;
20042;SDS011;10182;52.896;6.496;2023-05-10T19:35:19;8.70;;;7.77;;
20042;SDS011;10182;52.896;6.496;2023-05-10T19:40:21;10.07;;;9.10;;
20042;SDS011;10182;52.896;6.496;2023-05-10T19:45:24;10.17;;;9.17;;
20042;SDS011;10182;52.896;6.496;2023-05-10T19:50:26;11.57;;;9.93;;
20042;SDS011;10182;52.896;6.496;2023-05-10T19:55:28;10.13;;;9.13;;
20042;SDS011;10182;52.896;6.496;2023-05-10T20:00:32;10.73;;;9.77;;
20042;SDS011;10182;52.896;6.496;2023-05-10T20:05:34;12.07;;;10.97;;
20042;SDS011;10182;52.896;6.496;2023-05-10T20:10:35;11.27;;;10.17;;
20042;SDS011;10182;52.896;6.496;2023-05-10T20:15:38;11.80;;;10.70;;
20042;SDS011;10182;52.896;6.496;2023-05-10T20:20:40;10.63;;;9.10;;
20042;SDS011;10182;52.896;6.496;2023-05-10T20:25:42;11.67;;;10.57;;
20042;SDS011;10182;52.896;6.496;2023-05-10T20:30:45;12.20;;;10.93;;
20042;SDS011;10182;52.896;6.496;2023-05-10T20:35:47;12.13;;;10.77;;
20042;SDS011;10182;52.896;6.496;2023-05-10T20:40:49;12.03;;;10.67;;
20042;SDS011;10182;52.896;6.496;2023-05-10T20:45:52;11.57;;;10.47;;
20042;SDS011;10182;52.896;6.496;2023-05-10T20:50:54;12.83;;;11.20;;
20042;SDS011;10182;52.896;6.496;2023-05-10T20:55:55;12.77;;;11.00;;
20042;SDS011;10182;52.896;6.496;2023-05-10T21:00:58;12.07;;;10.60;;
20042;SDS011;10182;52.896;6.496;2023-05-10T21:06:01;11.13;;;9.70;;
20042;SDS011;10182;52.896;6.496;2023-05-10T21:11:02;12.50;;;11.17;;
20042;SDS011;10182;52.896;6.496;2023-05-10T21:16:06;11.87;;;10.70;;
20042;SDS011;10182;52.896;6.496;2023-05-10T21:21:08;12.27;;;10.83;;
20042;SDS011;10182;52.896;6.496;2023-05-10T21:26:09;12.17;;;10.57;;
20042;SDS011;10182;52.896;6.496;2023-05-10T21:31:12;14.37;;;11.67;;
20042;SDS011;10182;52.896;6.496;2023-05-10T21:36:15;16.73;;;12.87;;
20042;SDS011;10182;52.896;6.496;2023-05-10T21:41:16;15.20;;;13.07;;
20042;SDS011;10182;52.896;6.496;2023-05-10T21:46:19;13.90;;;12.47;;
20042;SDS011;10182;52.896;6.496;2023-05-10T21:51:21;13.37;;;11.93;;
20042;SDS011;10182;52.896;6.496;2023-05-10T21:56:23;12.60;;;11.30;;
20042;SDS011;10182;52.896;6.496;2023-05-10T22:01:26;14.23;;;12.73;;
20042;SDS011;10182;52.896;6.496;2023-05-10T22:06:27;14.17;;;12.77;;
20042;SDS011;10182;52.896;6.496;2023-05-10T22:11:29;15.80;;;13.87;;
20042;SDS011;10182;52.896;6.496;2023-05-10T22:16:33;15.27;;;13.67;;
20042;SDS011;10182;52.896;6.496;2023-05-10T22:21:34;16.50;;;13.53;;
20042;SDS011;10182;52.896;6.496;2023-05-10T22:26:36;17.00;;;13.63;;
20042;SDS011;10182;52.896;6.496;2023-05-10T22:31:39;16.33;;;14.63;;
20042;SDS011;10182;52.896;6.496;2023-05-10T22:36:40;17.63;;;15.07;;
20042;SDS011;10182;52.896;6.496;2023-05-10T22:41:43;17.47;;;14.67;;
20042;SDS011;10182;52.896;6.496;2023-05-10T22:46:46;19.00;;;14.53;;
20042;SDS011;10182;52.896;6.496;2023-05-10T22:51:48;19.63;;;15.97;;
20042;SDS011;10182;52.896;6.496;2023-05-10T22:56:49;21.20;;;16.40;;
20042;SDS011;10182;52.896;6.496;2023-05-10T23:01:53;20.47;;;16.33;;
20042;SDS011;10182;52.896;6.496;2023-05-10T23:06:55;19.73;;;15.30;;
20042;SDS011;10182;52.896;6.496;2023-05-10T23:11:57;18.30;;;15.67;;
20042;SDS011;10182;52.896;6.496;2023-05-10T23:17:00;17.00;;;14.93;;
20042;SDS011;10182;52.896;6.496;2023-05-10T23:22:01;19.67;;;16.57;;
20042;SDS011;10182;52.896;6.496;2023-05-10T23:27:03;22.97;;;16.53;;
20042;SDS011;10182;52.896;6.496;2023-05-10T23:32:06;23.27;;;18.80;;
20042;SDS011;10182;52.896;6.496;2023-05-10T23:37:08;21.43;;;18.73;;
20042;SDS011;10182;52.896;6.496;2023-05-10T23:42:09;26.30;;;19.83;;
20042;SDS011;10182;52.896;6.496;2023-05-10T23:47:13;22.50;;;18.80;;
20042;SDS011;10182;52.896;6.496;2023-05-10T23:52:14;23.13;;;18.27;;
20042;SDS011;10182;52.896;6.496;2023-05-10T23:57:16;22.77;;;18.60;;
